Frederika, Iowa
Current Conditions -  °F | °C
As of 1:15 PM on Thursday 18 Dec 2014 (Local Time) from KCCY Reporting Station
Overcast Overcast  
Wind Chill: 21°   Ceiling: 1200
Heat Index: 21°   Visibility: 10mi
Dew Point: 18°   Wind: 0mph
Humidity: 86%   Direction: NA
Pressure: 30.25"   Gusts: NA
Location:  42.88°N, 92.31°W
Report Text: KCCY 181915Z AUTO 00000KT 10SM OVC012 M06/M08 A3025 RMK AO2
Loading
Personal Weather Stations






























Interactive Weather Map New forecast layout! Learn more

10-Day Weather Forecast

Advertisements
Track Severe Weather on mobile